createdAt,value
2014-08-23T05:59:13.617Z,21.3
2014-08-23T05:59:31.867Z,21.3
2014-08-23T05:59:50.101Z,21.3
2014-08-23T06:00:08.384Z,21.3
2014-08-23T06:00:26.619Z,21.3
2014-08-23T06:00:44.822Z,21.3
2014-08-23T06:01:03.042Z,21.3
2014-08-23T06:01:21.246Z,21.3
2014-08-23T06:01:39.511Z,21.3
2014-08-23T06:01:57.730Z,21.3
2014-08-23T06:02:16.124Z,21.3
2014-08-23T06:02:36.889Z,21.3
2014-08-23T06:02:55.124Z,21.3
2014-08-23T06:03:17.360Z,21.3
2014-08-23T06:03:49.985Z,21.2
2014-08-23T06:04:08.205Z,21.2
2014-08-23T06:04:26.455Z,21.2
2014-08-23T06:04:45.970Z,21.2
2014-08-23T06:05:06.689Z,21.2
2014-08-23T06:05:28.629Z,21.2
2014-08-23T06:05:50.238Z,21.3
2014-08-23T06:06:08.457Z,21.3
2014-08-23T06:06:26.678Z,21.3
2014-08-23T06:06:44.866Z,21.3
2014-08-23T06:07:03.147Z,21.3
2014-08-23T06:07:21.414Z,21.3
2014-08-23T06:07:40.929Z,21.3
2014-08-23T06:08:01.054Z,21.3
2014-08-23T06:08:19.636Z,21.3
2014-08-23T06:08:37.979Z,21.3
2014-08-23T06:08:56.198Z,21.3
2014-08-23T06:09:16.136Z,21.3
2014-08-23T06:09:34.355Z,21.3
2014-08-23T06:09:52.808Z,21.3
2014-08-23T06:10:11.012Z,21.3
2014-08-23T06:10:29.280Z,21.3
2014-08-23T06:10:47.530Z,21.3
2014-08-23T06:11:05.749Z,21.4
2014-08-23T06:11:23.952Z,21.3
2014-08-23T06:11:42.298Z,21.3
2014-08-23T06:12:00.548Z,21.4
2014-08-23T06:12:18.923Z,21.3
2014-08-23T06:12:37.471Z,21.4
2014-08-23T06:12:55.908Z,21.4
2014-08-23T06:13:14.174Z,21.4
2014-08-23T06:13:46.567Z,21.4
2014-08-23T06:14:05.161Z,21.4
2014-08-23T06:14:23.442Z,21.4
2014-08-23T06:14:41.677Z,21.4
2014-08-23T06:14:59.913Z,21.5
2014-08-23T06:15:18.851Z,21.5
2014-08-23T06:15:37.116Z,21.5
2014-08-23T06:15:56.306Z,21.5
2014-08-23T06:16:14.556Z,21.5
2014-08-23T06:16:32.946Z,21.5
2014-08-23T06:16:51.196Z,21.5
2014-08-23T06:17:23.573Z,21.5
2014-08-23T06:17:42.386Z,21.5
2014-08-23T06:18:01.794Z,21.5
2014-08-23T06:18:34.154Z,21.5
2014-08-23T06:18:52.372Z,21.5
2014-08-23T06:19:10.624Z,21.5
2014-08-23T06:19:29.031Z,21.5
2014-08-23T06:19:48.109Z,21.5
2014-08-23T06:20:06.577Z,21.5
2014-08-23T06:20:24.814Z,21.5
2014-08-23T06:20:43.064Z,21.5
2014-08-23T06:21:01.392Z,21.5
2014-08-23T06:21:20.472Z,21.5
2014-08-23T06:21:38.941Z,21.5
2014-08-23T06:21:57.206Z,21.5
2014-08-23T06:22:15.441Z,21.5
2014-08-23T06:22:48.568Z,21.5
2014-08-23T06:23:07.083Z,21.5
2014-08-23T06:23:25.305Z,21.5
2014-08-23T06:23:43.602Z,21.5
2014-08-23T06:24:02.274Z,21.5
2014-08-23T06:24:21.321Z,21.5
2014-08-23T06:24:39.760Z,21.5
2014-08-23T06:24:58.573Z,21.5
2014-08-23T06:25:17.073Z,21.5
2014-08-23T06:25:35.309Z,21.5
2014-08-23T06:25:53.544Z,21.5
2014-08-23T06:26:44.608Z,21.5
2014-08-23T06:27:02.842Z,21.5
2014-08-23T06:27:36.405Z,21.6
2014-08-23T06:27:56.188Z,21.5
2014-08-23T06:28:15.032Z,21.6
2014-08-23T06:28:33.329Z,21.6
2014-08-23T06:28:51.565Z,21.6
2014-08-23T06:29:09.800Z,21.6
2014-08-23T06:29:28.800Z,21.6
2014-08-23T06:29:50.034Z,21.6
2014-08-23T06:30:12.395Z,21.6
2014-08-23T06:30:30.614Z,21.6
2014-08-23T06:30:48.848Z,21.6
2014-08-23T06:31:08.319Z,21.6
2014-08-23T06:31:28.413Z,21.6
2014-08-23T06:31:48.444Z,21.6
2014-08-23T06:32:07.681Z,21.6
2014-08-23T06:32:26.727Z,21.6
2014-08-23T06:32:47.462Z,21.6
2014-08-23T06:33:06.072Z,21.6
2014-08-23T06:33:24.416Z,21.6
2014-08-23T06:33:42.650Z,21.6
2014-08-23T06:34:00.856Z,21.6
2014-08-23T06:34:19.075Z,21.6
2014-08-23T06:34:37.310Z,21.6
2014-08-23T06:34:55.544Z,21.6
2014-08-23T06:35:16.654Z,21.6
2014-08-23T06:35:35.311Z,21.6
2014-08-23T06:35:53.920Z,21.6
2014-08-23T06:36:13.892Z,21.6
2014-08-23T06:36:32.095Z,21.6
2014-08-23T06:36:51.017Z,21.6
2014-08-23T06:37:10.409Z,21.6
2014-08-23T06:37:43.737Z,21.7
2014-08-23T06:38:01.972Z,21.6
2014-08-23T06:38:20.677Z,21.6
2014-08-23T06:38:39.318Z,21.6
2014-08-23T06:38:57.739Z,21.7
2014-08-23T06:39:15.960Z,21.7
2014-08-23T06:39:34.195Z,21.7
2014-08-23T06:39:52.507Z,21.7
2014-08-23T06:40:10.726Z,21.7
2014-08-23T06:40:28.993Z,21.7
2014-08-23T06:40:47.275Z,21.7
2014-08-23T06:41:05.493Z,21.7
2014-08-23T06:41:23.745Z,21.7
2014-08-23T06:41:41.949Z,21.7
2014-08-23T06:42:00.183Z,21.7
2014-08-23T06:42:18.417Z,21.7
2014-08-23T06:42:36.701Z,21.7
2014-08-23T06:42:54.919Z,21.7
2014-08-23T06:43:13.138Z,21.7
2014-08-23T06:43:31.453Z,21.7
2014-08-23T06:43:50.671Z,21.7
2014-08-23T06:44:08.984Z,21.7
2014-08-23T06:44:27.203Z,21.7
2014-08-23T06:44:45.439Z,21.7
2014-08-23T06:45:03.689Z,21.8
2014-08-23T06:45:21.986Z,21.8
2014-08-23T06:45:40.253Z,21.7
2014-08-23T06:45:58.457Z,21.7
2014-08-23T06:46:16.707Z,21.7
2014-08-23T06:46:34.910Z,21.7
2014-08-23T06:46:53.115Z,21.7
2014-08-23T06:47:11.365Z,21.8
2014-08-23T06:47:29.584Z,21.8
2014-08-23T06:47:47.898Z,21.8
2014-08-23T06:48:06.132Z,21.8
2014-08-23T06:48:24.351Z,21.8
2014-08-23T06:48:42.570Z,21.8
2014-08-23T06:49:00.823Z,21.8
2014-08-23T06:49:19.042Z,21.8
2014-08-23T06:49:37.260Z,21.8
2014-08-23T06:49:56.575Z,21.8
2014-08-23T06:50:14.591Z,21.8
2014-08-23T06:50:32.841Z,21.8
2014-08-23T06:50:51.044Z,21.8
2014-08-23T06:51:09.279Z,21.8
2014-08-23T06:51:27.482Z,21.8
2014-08-23T06:51:45.732Z,21.8
2014-08-23T06:52:03.969Z,21.8
2014-08-23T06:52:22.172Z,21.8
2014-08-23T06:52:40.406Z,21.8
2014-08-23T06:52:58.609Z,21.8
2014-08-23T06:53:16.861Z,21.8
2014-08-23T06:53:35.080Z,21.8
2014-08-23T06:53:53.283Z,21.8
2014-08-23T06:54:11.535Z,21.8
2014-08-23T06:54:29.738Z,21.8
2014-08-23T06:54:47.957Z,21.8
2014-08-23T06:55:06.178Z,21.8
2014-08-23T06:55:24.412Z,21.8
2014-08-23T06:55:42.646Z,21.8
2014-08-23T06:56:00.865Z,21.8
2014-08-23T06:56:19.070Z,21.8
2014-08-23T06:56:37.289Z,21.8
2014-08-23T06:56:55.523Z,21.8
2014-08-23T06:57:13.744Z,21.8
2014-08-23T06:57:31.963Z,21.8
2014-08-23T06:57:50.197Z,21.8
2014-08-23T06:58:22.559Z,21.8
2014-08-23T06:58:40.793Z,21.8
2014-08-23T06:58:59.012Z,21.8
2014-08-23T06:59:17.248Z,21.8
2014-08-23T06:59:35.483Z,21.8
2014-08-23T06:59:53.717Z,21.8
2014-08-23T07:00:11.951Z,21.8
2014-08-23T07:00:30.344Z,21.9
2014-08-23T07:00:48.625Z,21.9
2014-08-23T07:01:06.860Z,21.9
2014-08-23T07:01:25.097Z,21.9
2014-08-23T07:01:43.347Z,21.9
2014-08-23T07:02:01.597Z,21.9
2014-08-23T07:02:19.816Z,21.9
2014-08-23T07:02:38.036Z,21.9
2014-08-23T07:03:28.663Z,21.9
2014-08-23T07:03:46.929Z,21.9
2014-08-23T07:04:05.195Z,21.9
2014-08-23T07:04:23.398Z,21.9
2014-08-23T07:04:41.649Z,21.9
2014-08-23T07:04:59.868Z,21.9
2014-08-23T07:05:18.055Z,21.9
2014-08-23T07:05:36.338Z,21.9
2014-08-23T07:05:54.557Z,21.9
2014-08-23T07:06:12.776Z,21.9
2014-08-23T07:06:30.995Z,21.9
2014-08-23T07:06:49.231Z,21.9
2014-08-23T07:07:07.465Z,21.9
2014-08-23T07:07:25.668Z,21.9
2014-08-23T07:07:43.921Z,21.9
2014-08-23T07:08:02.156Z,21.9
2014-08-23T07:08:20.390Z,21.9
2014-08-23T07:08:38.593Z,21.9
2014-08-23T07:08:56.830Z,21.9
2014-08-23T07:09:15.064Z,21.9
2014-08-23T07:09:33.283Z,21.9
2014-08-23T07:09:51.504Z,21.9
2014-08-23T07:10:09.738Z,21.9
2014-08-23T07:10:27.941Z,21.9
2014-08-23T07:10:46.160Z,21.9
2014-08-23T07:11:04.381Z,21.9
2014-08-23T07:11:22.615Z,21.9
2014-08-23T07:11:40.849Z,21.9
2014-08-23T07:11:59.086Z,21.9
2014-08-23T07:12:17.304Z,21.9
2014-08-23T07:12:35.523Z,21.9
2014-08-23T07:12:53.758Z,21.9
2014-08-23T07:13:11.978Z,21.9
2014-08-23T07:13:30.197Z,21.9
2014-08-23T07:13:48.416Z,21.9
2014-08-23T07:14:06.636Z,22
2014-08-23T07:14:24.870Z,21.9
2014-08-23T07:14:43.073Z,21.9
2014-08-23T07:15:01.309Z,21.9
2014-08-23T07:15:19.528Z,22
2014-08-23T07:15:37.747Z,22
2014-08-23T07:15:55.966Z,22
2014-08-23T07:16:14.203Z,22
2014-08-23T07:16:32.437Z,22
2014-08-23T07:16:50.656Z,22
2014-08-23T07:17:08.845Z,22
2014-08-23T07:17:27.079Z,22
2014-08-23T07:17:45.407Z,22
2014-08-23T07:18:03.532Z,22
2014-08-23T07:18:21.785Z,22
2014-08-23T07:19:12.412Z,22
2014-08-23T07:19:30.600Z,22
2014-08-23T07:19:48.834Z,22
2014-08-23T07:20:07.068Z,22
2014-08-23T07:20:25.273Z,22
2014-08-23T07:20:43.538Z,22
2014-08-23T07:21:01.710Z,22
2014-08-23T07:21:19.931Z,22
2014-08-23T07:21:38.165Z,22
2014-08-23T07:21:56.384Z,22
2014-08-23T07:22:14.603Z,22
2014-08-23T07:22:32.824Z,22
2014-08-23T07:22:51.043Z,22
2014-08-23T07:23:09.293Z,22
2014-08-23T07:23:27.497Z,22
2014-08-23T07:23:46.419Z,22
2014-08-23T07:24:06.622Z,22
2014-08-23T07:24:26.591Z,22
2014-08-23T07:24:45.734Z,22
2014-08-23T07:25:04.265Z,22
2014-08-23T07:25:22.484Z,22
2014-08-23T07:25:40.704Z,22
2014-08-23T07:25:58.923Z,22
2014-08-23T07:26:17.173Z,22
2014-08-23T07:26:35.411Z,22
2014-08-23T07:26:53.645Z,22
2014-08-23T07:27:11.848Z,22
2014-08-23T07:27:30.082Z,22
2014-08-23T07:27:48.318Z,22
2014-08-23T07:28:06.505Z,22
2014-08-23T07:28:24.740Z,22
2014-08-23T07:28:42.961Z,22
2014-08-23T07:29:01.196Z,22
2014-08-23T07:29:33.586Z,22.1
2014-08-23T07:29:51.838Z,22.1
2014-08-23T07:30:10.073Z,22.1
2014-08-23T07:30:28.292Z,22.1
2014-08-23T07:30:46.542Z,22.1
2014-08-23T07:31:04.747Z,22.1
2014-08-23T07:31:22.981Z,22.1
2014-08-23T07:31:41.200Z,22.1
2014-08-23T07:31:59.437Z,22.1
2014-08-23T07:32:17.640Z,22.1
2014-08-23T07:32:35.859Z,22.1
2014-08-23T07:32:54.109Z,22.1
2014-08-23T07:33:12.329Z,22.1
2014-08-23T07:33:30.548Z,22.1
2014-08-23T07:33:48.751Z,22.1
2014-08-23T07:34:07.003Z,22.1
2014-08-23T07:34:25.221Z,22.1
2014-08-23T07:34:43.440Z,22.1
2014-08-23T07:35:01.659Z,22.1
2014-08-23T07:35:19.880Z,22.1
2014-08-23T07:35:38.098Z,22.1
2014-08-23T07:35:56.317Z,22.1
2014-08-23T07:36:14.570Z,22.1
2014-08-23T07:36:32.789Z,22.1
2014-08-23T07:36:51.023Z,22.1
2014-08-23T07:37:09.258Z,22.1
2014-08-23T07:37:27.477Z,22.1
2014-08-23T07:37:45.712Z,22.1
2014-08-23T07:38:03.931Z,22.1
2014-08-23T07:38:22.152Z,22.1
2014-08-23T07:38:40.387Z,22.1
2014-08-23T07:38:58.605Z,22.1
2014-08-23T07:39:16.811Z,22.1
2014-08-23T07:39:35.045Z,22.1
2014-08-23T07:39:53.264Z,22.1
2014-08-23T07:40:11.498Z,22.1
2014-08-23T07:40:29.733Z,22.2
2014-08-23T07:40:47.937Z,22.2
2014-08-23T07:41:06.171Z,22.2
2014-08-23T07:41:24.376Z,22.1
2014-08-23T07:41:42.610Z,22.2
2014-08-23T07:42:00.814Z,22.2
2014-08-23T07:42:19.048Z,22.2
2014-08-23T07:42:37.284Z,22.2
2014-08-23T07:42:55.519Z,22.2
2014-08-23T07:43:13.737Z,22.2
2014-08-23T07:43:31.974Z,22.2
2014-08-23T07:43:50.177Z,22.2
2014-08-23T07:44:08.396Z,22.2
2014-08-23T07:44:26.614Z,22.2
2014-08-23T07:44:44.867Z,22.2
2014-08-23T07:45:03.071Z,22.2
2014-08-23T07:45:21.321Z,22.2
2014-08-23T07:45:39.525Z,22.2
2014-08-23T07:45:57.743Z,22.2
2014-08-23T07:46:15.978Z,22.2
2014-08-23T07:46:34.197Z,22.2
2014-08-23T07:46:52.418Z,22.2
2014-08-23T07:47:10.637Z,22.2
2014-08-23T07:47:28.856Z,22.2
2014-08-23T07:47:47.107Z,22.2
2014-08-23T07:48:05.326Z,22.2
2014-08-23T07:48:23.544Z,22.2
2014-08-23T07:48:41.779Z,22.2
2014-08-23T07:48:59.984Z,22.2
2014-08-23T07:49:18.203Z,22.2
2014-08-23T07:49:36.421Z,22.2
2014-08-23T07:49:54.673Z,22.2
2014-08-23T07:50:12.892Z,22.2
2014-08-23T07:50:31.111Z,22.2
2014-08-23T07:50:49.314Z,22.2
2014-08-23T07:51:07.567Z,22.2
2014-08-23T07:51:25.801Z,22.2
2014-08-23T07:51:44.004Z,22.2
2014-08-23T07:52:02.255Z,22.2
2014-08-23T07:52:20.490Z,22.2
2014-08-23T07:52:38.677Z,22.2
2014-08-23T07:52:56.912Z,22.2
2014-08-23T07:53:15.133Z,22.2
2014-08-23T07:53:33.352Z,22.2
2014-08-23T07:54:23.948Z,22.2
2014-08-23T07:54:42.198Z,22.2
2014-08-23T07:55:00.417Z,22.2
2014-08-23T07:55:18.636Z,22.2
2014-08-23T07:55:36.855Z,22.2
2014-08-23T07:55:55.090Z,22.2
2014-08-23T07:56:13.310Z,22.2
2014-08-23T07:56:31.529Z,22.2
2014-08-23T07:56:49.763Z,22.3
2014-08-23T07:57:07.998Z,22.2
2014-08-23T07:57:26.220Z,22.2
2014-08-23T07:57:44.423Z,22.2
2014-08-23T07:58:02.641Z,22.2
2014-08-23T07:58:20.892Z,22.2
2014-08-23T07:58:39.111Z,22.2
2014-08-23T07:58:57.346Z,22.2
2014-08-23T07:59:15.580Z,22.3
2014-08-23T07:59:33.817Z,22.3
2014-08-23T07:59:52.052Z,22.3
2014-08-23T08:00:10.286Z,22.3
2014-08-23T08:00:28.585Z,22.3
2014-08-23T08:00:46.772Z,22.2
2014-08-23T08:01:05.007Z,22.3
2014-08-23T08:01:23.210Z,22.3
2014-08-23T08:01:41.462Z,22.3
2014-08-23T08:01:59.681Z,22.3
2014-08-23T08:02:17.884Z,22.3
2014-08-23T08:02:36.136Z,22.3
2014-08-23T08:02:54.355Z,22.3
2014-08-23T08:03:12.573Z,22.3
2014-08-23T08:03:31.042Z,22.3
2014-08-23T08:03:49.044Z,22.3
2014-08-23T08:04:07.247Z,22.3
2014-08-23T08:04:25.513Z,22.3
2014-08-23T08:04:43.702Z,22.3
2014-08-23T08:05:01.952Z,22.3
2014-08-23T08:05:20.171Z,22.3
2014-08-23T08:05:38.405Z,22.3
2014-08-23T08:05:56.626Z,22.3
2014-08-23T08:06:14.845Z,22.3
2014-08-23T08:06:33.064Z,22.3
2014-08-23T08:06:51.284Z,22.3
2014-08-23T08:07:09.503Z,22.3
2014-08-23T08:07:27.738Z,22.3
2014-08-23T08:07:45.972Z,22.3
2014-08-23T08:08:04.177Z,22.3
2014-08-23T08:08:22.411Z,22.3
2014-08-23T08:08:40.661Z,22.3
2014-08-23T08:08:58.883Z,22.3
2014-08-23T08:09:17.086Z,22.3
2014-08-23T08:09:35.321Z,22.3
2014-08-23T08:09:53.555Z,22.3
2014-08-23T08:10:11.775Z,22.3
2014-08-23T08:10:29.994Z,22.3
2014-08-23T08:10:48.228Z,22.3
2014-08-23T08:11:06.449Z,22.3
2014-08-23T08:11:24.683Z,22.3
2014-08-23T08:11:42.917Z,22.3
2014-08-23T08:12:01.121Z,22.3
2014-08-23T08:12:19.388Z,22.3
2014-08-23T08:12:37.607Z,22.3
2014-08-23T08:12:55.810Z,22.3
2014-08-23T08:13:14.046Z,22.3
2014-08-23T08:13:32.281Z,22.3
2014-08-23T08:13:50.484Z,22.3
2014-08-23T08:14:22.893Z,22.3
2014-08-23T08:14:41.112Z,22.3
2014-08-23T08:14:59.315Z,22.3
2014-08-23T08:15:17.565Z,22.3
2014-08-23T08:15:35.785Z,22.3
2014-08-23T08:15:54.004Z,22.3
2014-08-23T08:16:12.222Z,22.3
2014-08-23T08:16:30.444Z,22.3
2014-08-23T08:16:48.694Z,22.3
2014-08-23T08:17:06.928Z,22.3
2014-08-23T08:17:25.147Z,22.3
2014-08-23T08:17:43.399Z,22.3
2014-08-23T08:18:01.602Z,22.3
2014-08-23T08:18:19.805Z,22.3
2014-08-23T08:18:38.041Z,22.3
2014-08-23T08:18:56.275Z,22.3
2014-08-23T08:19:14.510Z,22.3
2014-08-23T08:19:32.744Z,22.3
2014-08-23T08:19:50.981Z,22.3
2014-08-23T08:20:09.216Z,22.3
2014-08-23T08:20:27.419Z,22.3
2014-08-23T08:20:45.640Z,22.3
2014-08-23T08:21:03.890Z,22.3
2014-08-23T08:21:36.249Z,22.3
2014-08-23T08:21:54.501Z,22.3
2014-08-23T08:22:12.704Z,22.3
2014-08-23T08:22:30.923Z,22.3
2014-08-23T08:22:49.173Z,22.3
2014-08-23T08:23:07.378Z,22.3
2014-08-23T08:23:25.628Z,22.3
2014-08-23T08:23:43.831Z,22.3
2014-08-23T08:24:16.224Z,22.4
2014-08-23T08:24:34.442Z,22.4
2014-08-23T08:24:52.677Z,22.4
2014-08-23T08:25:10.882Z,22.4
2014-08-23T08:25:29.101Z,22.4
2014-08-23T08:25:47.351Z,22.4
2014-08-23T08:26:05.569Z,22.4
2014-08-23T08:26:23.790Z,22.4
2014-08-23T08:26:42.040Z,22.4
2014-08-23T08:27:00.259Z,22.4
2014-08-23T08:27:18.480Z,22.4
2014-08-23T08:27:36.730Z,22.3
2014-08-23T08:27:54.948Z,22.3
2014-08-23T08:28:13.198Z,22.4
2014-08-23T08:28:31.389Z,22.3
2014-08-23T08:28:49.623Z,22.3
2014-08-23T08:29:21.999Z,22.4
2014-08-23T08:29:40.265Z,22.4
2014-08-23T08:30:12.624Z,22.4
2014-08-23T08:30:30.845Z,22.4
2014-08-23T08:30:49.064Z,22.4
2014-08-23T08:31:07.283Z,22.4
2014-08-23T08:31:25.517Z,22.4
2014-08-23T08:31:43.738Z,22.4
2014-08-23T08:32:01.956Z,22.4
2014-08-23T08:32:20.191Z,22.4
2014-08-23T08:32:38.412Z,22.4
2014-08-23T08:32:56.646Z,22.4
2014-08-23T08:33:14.849Z,22.4
2014-08-23T08:33:33.068Z,22.4
2014-08-23T08:33:51.477Z,22.4
2014-08-23T08:34:09.711Z,22.4
2014-08-23T08:34:27.946Z,22.4
2014-08-23T08:34:46.167Z,22.4
2014-08-23T08:35:04.401Z,22.4
2014-08-23T08:35:22.635Z,22.4
2014-08-23T08:35:40.838Z,22.4
2014-08-23T08:35:59.075Z,22.4
2014-08-23T08:36:17.294Z,22.4
2014-08-23T08:36:35.528Z,22.4
2014-08-23T08:37:22.827Z,22.4
2014-08-23T08:37:41.061Z,22.4
2014-08-23T08:37:59.282Z,22.4
2014-08-23T08:38:17.501Z,22.4
2014-08-23T08:38:35.735Z,22.4
2014-08-23T08:38:53.954Z,22.4
2014-08-23T08:39:12.143Z,22.4
2014-08-23T08:39:30.378Z,22.4
2014-08-23T08:39:48.612Z,22.4
2014-08-23T08:40:06.848Z,22.4
2014-08-23T08:40:39.239Z,22.4
2014-08-23T08:40:57.442Z,22.4
2014-08-23T08:41:15.679Z,22.4
2014-08-23T08:42:06.304Z,22.4
2014-08-23T08:42:24.524Z,22.4
2014-08-23T08:42:42.759Z,22.4
2014-08-23T08:43:00.962Z,22.4
2014-08-23T08:43:19.196Z,22.4
2014-08-23T08:43:37.418Z,22.4
2014-08-23T08:43:55.637Z,22.4
2014-08-23T08:44:13.840Z,22.4
2014-08-23T08:44:32.091Z,22.4
2014-08-23T08:44:50.310Z,22.4
2014-08-23T08:45:08.544Z,22.4
2014-08-23T08:45:26.747Z,22.4
2014-08-23T08:45:44.999Z,22.4
2014-08-23T08:46:03.202Z,22.4
2014-08-23T08:46:21.421Z,22.4
2014-08-23T08:46:39.657Z,22.4
2014-08-23T08:46:57.876Z,22.5
2014-08-23T08:47:16.110Z,22.4
2014-08-23T08:47:34.532Z,22.4
2014-08-23T08:47:52.566Z,22.4
2014-08-23T08:48:10.800Z,22.4
2014-08-23T08:48:29.034Z,22.5
2014-08-23T08:48:47.474Z,22.4
2014-08-23T08:49:05.489Z,22.4
2014-08-23T08:49:23.724Z,22.4
2014-08-23T08:49:41.943Z,22.4
2014-08-23T08:50:00.180Z,22.4
2014-08-23T08:50:18.383Z,22.4
2014-08-23T08:50:36.602Z,22.4
2014-08-23T08:50:54.854Z,22.4
2014-08-23T08:51:13.088Z,22.4
2014-08-23T08:51:31.401Z,22.4
2014-08-23T08:51:49.619Z,22.4
2014-08-23T08:52:08.075Z,22.4
2014-08-23T08:52:26.262Z,22.4
2014-08-23T08:52:44.528Z,22.5
2014-08-23T08:53:02.733Z,22.5
2014-08-23T08:53:20.952Z,22.4
2014-08-23T08:53:39.170Z,22.5
2014-08-23T08:53:57.389Z,22.5
2014-08-23T08:54:15.656Z,22.5
2014-08-23T08:54:33.890Z,22.5
2014-08-23T08:54:52.124Z,22.5
2014-08-23T08:55:10.346Z,22.5
2014-08-23T08:55:28.612Z,22.5
2014-08-23T08:55:46.846Z,22.5
2014-08-23T08:56:05.268Z,22.5
2014-08-23T08:56:23.489Z,22.5
2014-08-23T08:56:41.708Z,22.5
2014-08-23T08:56:59.926Z,22.5
2014-08-23T08:57:18.177Z,22.5
2014-08-23T08:57:36.396Z,22.5
2014-08-23T08:57:54.630Z,22.5
2014-08-23T08:58:12.818Z,22.5
2014-08-23T08:58:31.087Z,22.5
2014-08-23T08:58:49.290Z,22.5
2014-08-23T08:59:07.508Z,22.5
2014-08-23T08:59:25.745Z,22.5
2014-08-23T08:59:43.979Z,22.5
2014-08-23T09:00:02.198Z,22.5
2014-08-23T09:00:20.432Z,22.5
2014-08-23T09:00:38.637Z,22.5
2014-08-23T09:00:56.887Z,22.5
2014-08-23T09:01:15.106Z,22.5
2014-08-23T09:01:33.327Z,22.5
2014-08-23T09:01:51.530Z,22.5
2014-08-23T09:02:09.796Z,22.5
2014-08-23T09:02:28.014Z,22.5
2014-08-23T09:02:46.516Z,22.5
2014-08-23T09:03:04.751Z,22.5
2014-08-23T09:03:22.985Z,22.5
2014-08-23T09:03:41.206Z,22.5
2014-08-23T09:03:59.409Z,22.5
2014-08-23T09:04:17.628Z,22.5
2014-08-23T09:04:35.878Z,22.5
2014-08-23T09:04:54.100Z,22.5
2014-08-23T09:05:12.334Z,22.5
2014-08-23T09:05:30.537Z,22.5
2014-08-23T09:05:48.789Z,22.5
2014-08-23T09:06:07.008Z,22.5
2014-08-23T09:06:25.211Z,22.5
2014-08-23T09:06:43.445Z,22.5
2014-08-23T09:07:01.665Z,22.5
2014-08-23T09:07:19.915Z,22.5
2014-08-23T09:07:38.118Z,22.5
2014-08-23T09:07:56.370Z,22.5
2014-08-23T09:08:14.605Z,22.5
2014-08-23T09:08:32.808Z,22.5
2014-08-23T09:08:51.026Z,22.5
2014-08-23T09:09:09.263Z,22.5
2014-08-23T09:09:27.497Z,22.5
2014-08-23T09:09:45.716Z,22.5
2014-08-23T09:10:03.937Z,22.5
2014-08-23T09:10:22.187Z,22.5
2014-08-23T09:10:40.405Z,22.5
2014-08-23T09:10:58.642Z,22.5
2014-08-23T09:11:16.861Z,22.5
2014-08-23T09:11:35.095Z,22.5
2014-08-23T09:11:53.298Z,22.5
2014-08-23T09:12:11.550Z,22.5
2014-08-23T09:12:29.753Z,22.5
2014-08-23T09:12:48.003Z,22.5
2014-08-23T09:13:20.381Z,22.6
2014-08-23T09:13:38.616Z,22.5
2014-08-23T09:13:56.834Z,22.5
2014-08-23T09:14:15.039Z,22.5
2014-08-23T09:14:33.274Z,22.5
2014-08-23T09:14:51.493Z,22.5
2014-08-23T09:15:09.727Z,22.5
2014-08-23T09:15:27.947Z,22.6
2014-08-23T09:15:46.181Z,22.5
2014-08-23T09:16:04.415Z,22.6
2014-08-23T09:16:22.637Z,22.6
2014-08-23T09:16:40.872Z,22.6
2014-08-23T09:16:59.106Z,22.6
2014-08-23T09:17:17.309Z,22.6
2014-08-23T09:17:35.529Z,22.6
2014-08-23T09:17:53.748Z,22.6
2014-08-23T09:18:11.966Z,22.6
2014-08-23T09:18:30.218Z,22.6
2014-08-23T09:18:48.421Z,22.6
2014-08-23T09:19:06.656Z,22.6
2014-08-23T09:19:24.890Z,22.6
2014-08-23T09:19:43.081Z,22.6
2014-08-23T09:20:01.331Z,22.6
2014-08-23T09:20:19.549Z,22.6
2014-08-23T09:20:37.786Z,22.6
2014-08-23T09:20:55.973Z,22.6
2014-08-23T09:21:14.223Z,22.6
2014-08-23T09:21:32.442Z,22.6
2014-08-23T09:21:50.678Z,22.6
2014-08-23T09:22:08.913Z,22.6
2014-08-23T09:22:27.100Z,22.6
2014-08-23T09:22:45.351Z,22.6
2014-08-23T09:23:50.854Z,22.6
2014-08-23T09:24:09.089Z,22.6
2014-08-23T09:24:27.292Z,22.6
2014-08-23T09:24:45.526Z,22.6
2014-08-23T09:25:03.747Z,22.6
2014-08-23T09:25:21.981Z,22.6
2014-08-23T09:25:40.216Z,22.6
2014-08-23T09:25:58.436Z,22.6
2014-08-23T09:26:16.640Z,22.6
2014-08-23T09:26:34.858Z,22.6
2014-08-23T09:26:53.077Z,22.6
2014-08-23T09:27:11.297Z,22.6
2014-08-23T09:27:29.547Z,22.6
2014-08-23T09:27:47.766Z,22.6
2014-08-23T09:28:06.003Z,22.6
2014-08-23T09:28:24.237Z,22.6
2014-08-23T09:28:42.456Z,22.6
2014-08-23T09:29:00.675Z,22.6
2014-08-23T09:29:18.942Z,22.6
2014-08-23T09:29:37.146Z,22.6
2014-08-23T09:29:55.364Z,22.6
2014-08-23T09:30:13.585Z,22.6
2014-08-23T09:30:31.819Z,22.6
2014-08-23T09:30:50.069Z,22.6
2014-08-23T09:31:08.273Z,22.6
2014-08-23T09:31:26.478Z,22.6
2014-08-23T09:31:44.728Z,22.6
2014-08-23T09:32:02.946Z,22.6
2014-08-23T09:32:21.183Z,22.6
2014-08-23T09:32:39.386Z,22.6
2014-08-23T09:32:57.636Z,22.6
2014-08-23T09:33:15.855Z,22.7
2014-08-23T09:33:34.091Z,22.6
2014-08-23T09:33:52.294Z,22.7
2014-08-23T09:34:10.529Z,22.7
2014-08-23T09:34:28.749Z,22.7
2014-08-23T09:34:46.984Z,22.6
2014-08-23T09:35:05.202Z,22.7
2014-08-23T09:35:23.452Z,22.6
2014-08-23T09:35:41.673Z,22.6
2014-08-23T09:35:59.892Z,22.6
2014-08-23T09:36:18.095Z,22.6
2014-08-23T09:36:36.363Z,22.6
2014-08-23T09:36:54.581Z,22.6
2014-08-23T09:37:12.816Z,22.6
2014-08-23T09:37:31.035Z,22.6
2014-08-23T09:37:49.287Z,22.6
2014-08-23T09:38:07.521Z,22.6
2014-08-23T09:38:25.724Z,22.6
2014-08-23T09:38:43.992Z,22.6
2014-08-23T09:39:02.210Z,22.6
2014-08-23T09:39:20.429Z,22.6
2014-08-23T09:39:38.648Z,22.6
2014-08-23T09:39:56.869Z,22.6
2014-08-23T09:40:15.119Z,22.6
2014-08-23T09:40:33.353Z,22.6
2014-08-23T09:40:51.559Z,22.6
2014-08-23T09:41:09.778Z,22.6
2014-08-23T09:41:28.028Z,22.6
2014-08-23T09:41:46.247Z,22.6
2014-08-23T09:42:04.466Z,22.6
2014-08-23T09:42:22.685Z,22.6
2014-08-23T09:42:40.935Z,22.6
2014-08-23T09:42:59.172Z,22.6
2014-08-23T09:43:17.375Z,22.6
2014-08-23T09:43:35.609Z,22.6
2014-08-23T09:43:53.797Z,22.6
2014-08-23T09:44:12.050Z,22.6
2014-08-23T09:44:30.268Z,22.6
2014-08-23T09:44:48.503Z,22.6
2014-08-23T09:45:06.722Z,22.6
2014-08-23T09:45:24.957Z,22.6
2014-08-23T09:45:43.176Z,22.6
2014-08-23T09:46:01.426Z,22.6
2014-08-23T09:46:19.663Z,22.6
2014-08-23T09:46:37.897Z,22.6
2014-08-23T09:46:56.116Z,22.6
2014-08-23T09:47:14.351Z,22.6
2014-08-23T09:47:32.570Z,22.6
2014-08-23T09:47:50.820Z,22.6
2014-08-23T09:48:09.039Z,22.6
2014-08-23T09:48:27.276Z,22.6
2014-08-23T09:48:45.511Z,22.6
2014-08-23T09:49:03.729Z,22.6
2014-08-23T09:49:21.950Z,22.6
2014-08-23T09:49:40.169Z,22.6
2014-08-23T09:49:58.403Z,22.6
2014-08-23T09:50:16.653Z,22.6
2014-08-23T09:50:34.874Z,22.5
2014-08-23T09:50:53.093Z,22.5
2014-08-23T09:51:11.327Z,22.6
2014-08-23T09:51:29.564Z,22.6
2014-08-23T09:51:47.767Z,22.5
2014-08-23T09:52:05.985Z,22.5
2014-08-23T09:52:24.204Z,22.6
2014-08-23T09:52:42.441Z,22.5
2014-08-23T09:53:00.644Z,22.5
2014-08-23T09:53:18.972Z,22.5
2014-08-23T09:53:37.193Z,22.6
2014-08-23T09:53:55.427Z,22.5
2014-08-23T09:54:13.630Z,22.6
2014-08-23T09:54:31.849Z,22.6
2014-08-23T09:54:50.085Z,22.6
2014-08-23T09:55:08.320Z,22.6
2014-08-23T09:55:26.523Z,22.6
2014-08-23T09:55:44.759Z,22.6
2014-08-23T09:56:03.025Z,22.6
2014-08-23T09:56:21.243Z,22.6
2014-08-23T09:56:39.462Z,22.6
2014-08-23T09:56:57.683Z,22.6
2014-08-23T09:57:15.917Z,22.6
2014-08-23T09:57:34.152Z,22.6
2014-08-23T09:57:52.372Z,22.6
2014-08-23T09:58:11.091Z,22.6
2014-08-23T09:59:01.703Z,22.6
2014-08-23T09:59:19.921Z,22.6
2014-08-23T09:59:38.140Z,22.6
2014-08-23T09:59:56.390Z,22.6
2014-08-23T10:00:14.626Z,22.6
2014-08-23T10:00:32.861Z,22.6
2014-08-23T10:00:51.095Z,22.6
2014-08-23T10:01:09.363Z,22.6
2014-08-23T10:01:27.519Z,22.6
2014-08-23T10:01:45.738Z,22.6
2014-08-23T10:02:03.988Z,22.6
2014-08-23T10:02:22.241Z,22.6
2014-08-23T10:02:40.600Z,22.6
2014-08-23T10:02:59.069Z,22.6
2014-08-23T10:03:17.305Z,22.6
2014-08-23T10:03:35.540Z,22.6
2014-08-23T10:03:53.743Z,22.6
2014-08-23T10:04:11.993Z,22.6
2014-08-23T10:04:30.214Z,22.7
2014-08-23T10:04:48.448Z,22.6
2014-08-23T10:05:06.667Z,22.7
2014-08-23T10:05:24.887Z,22.7
2014-08-23T10:05:43.122Z,22.7
2014-08-23T10:06:01.356Z,22.7
2014-08-23T10:06:19.575Z,22.7
2014-08-23T10:06:37.810Z,22.7
2014-08-23T10:06:56.060Z,22.7
2014-08-23T10:07:14.263Z,22.7
2014-08-23T10:07:32.515Z,22.7
2014-08-23T10:07:50.734Z,22.7
2014-08-23T10:08:08.984Z,22.7
2014-08-23T10:08:27.187Z,22.7
2014-08-23T10:08:45.425Z,22.7
2014-08-23T10:09:03.643Z,22.7
2014-08-23T10:09:21.909Z,22.7
2014-08-23T10:09:40.145Z,22.7
2014-08-23T10:09:58.349Z,22.7
2014-08-23T10:10:16.583Z,22.7
2014-08-23T10:10:34.802Z,22.7
2014-08-23T10:10:53.037Z,22.7
2014-08-23T10:11:11.256Z,22.7
2014-08-23T10:11:29.475Z,22.7
2014-08-23T10:11:47.712Z,22.8
2014-08-23T10:12:05.946Z,22.8